Stations météo

réclame
Mon MeteoGroup
Feldberg/Schwarzwald, Allemagne (10908): Température de l'air & dewpoint: 15.09.2018 10:00:00 - 21.09.2018 10:00:00 (CEST)Feldberg/Schwarzwald, Allemagne (10908): Température de l'air 5cm & Température de l'air -5cm: 15.09.2018 10:00:00 - 21.09.2018 10:00:00 (CEST)Feldberg/Schwarzwald, Allemagne (10908): Température de l'air -20cm & Température de l'air -100cm: 15.09.2018 10:00:00 - 21.09.2018 10:00:00 (CEST)Feldberg/Schwarzwald, Allemagne (10908): Vitesse du vent & gusts: 15.09.2018 10:00:00 - 21.09.2018 10:00:00 (CEST)Feldberg/Schwarzwald, Allemagne (10908): Direction du vent: 15.09.2018 10:00:00 - 21.09.2018 10:00:00 (CEST)Feldberg/Schwarzwald, Allemagne (10908): visibility: 15.09.2018 10:00:00 - 21.09.2018 10:00:00 (CEST)Feldberg/Schwarzwald, Allemagne (10908): Ensoleillement: 15.09.2018 10:00:00 - 21.09.2018 10:00:00 (CEST)Feldberg/Schwarzwald, Allemagne (10908): Quantités de précipitations: 15.09.2018 10:00:00 - 21.09.2018 10:00:00 (CEST)
Date & Time tt [°C] td [°C] tt 5cm [°C] tt -5cm [°C] tt -20cm [°C] tt -100cm [°C] ff [km/h] ff [knt] fx [km/h] fx [knt] dd vv [km] sd [min] rr [mm]
21.09.2018 10:00:00 14,4 8,6 14,6 13,5 14,2 11,4 43 23 63 34 SW 49 38 0,0
21.09.2018 09:00:00 14,4 8,5 14,6 12,4 14,4 11,4 50 27 70 38 SSW 44 58 0,0
21.09.2018 08:00:00 14,6 7,8 12,8 12,0 14,5 11,3 50 27 66 35 SW 51 18 0,0
21.09.2018 07:00:00 14,1 8,5 12,3 12,2 14,7 11,3 46 25 60 33 SW 39 0 0,0
21.09.2018 06:00:00 14,1 9,6 12,1 12,4 14,9 11,3 41 22 47 25 SSW 34 0 0,0
21.09.2018 05:00:00 14,5 9,4 12,3 12,6 15,2 11,3 39 21 48 26 SSW 36 0 0,0
21.09.2018 04:00:00 14,2 10,1 12,3 12,8 15,4 11,3 39 21 47 25 SSW 30 0 0,0
21.09.2018 03:00:00 14,2 10,3 12,1 13,0 15,6 11,3 37 20 43 23 S 31 0 0,0
21.09.2018 02:00:00 14,8 9,6 12,6 13,3 15,9 11,3 36 19 44 24 S 39 0 0,0
21.09.2018 01:00:00 14,8 10,0 12,9 13,8 16,2 11,3 32 18 39 21 S 37 0 0,0
21.09.2018 00:00:00 15,0 10,7 13,1 14,2 16,4 11,3 25 13 32 17 S 34 0 0,0
20.09.2018 23:00:00 15,7 9,7 12,6 14,8 16,7 11,3 22 12 24 13 S 40 0 0,0
20.09.2018 22:00:00 16,1 7,5 11,6 15,8 16,8 11,3 17 9 20 11 SSW 62 0 0,0
20.09.2018 21:00:00 15,8 8,8 11,7 17,2 16,9 11,3 16 8 20 11 SSW 49 0 0,0
20.09.2018 20:00:00 15,9 8,7 12,3 19,1 16,8 11,3 15 8 16 9 SSW 49 13 0,0
20.09.2018 19:00:00 16,9 8,6 15,9 21,4 16,5 11,3 11 6 19 10 SSW 58 60 0,0
20.09.2018 18:00:00 17,6 7,8 19,5 23,1 16,1 11,3 17 9 28 15 SSW 61 60 0,0
20.09.2018 17:00:00 17,7 6,1 21,2 24,2 15,6 11,3 18 10 31 17 SSW 59 60 0,0
20.09.2018 16:00:00 17,6 9,4 22,0 24,5 15,1 11,3 16 9 31 17 SSW 47 60 0,0
20.09.2018 15:00:00 17,5 8,5 23,6 24,0 14,6 11,3 15 8 26 14 SW 45 40 0,0
20.09.2018 14:00:00 17,4 12,1 23,8 23,9 14,1 11,3 13 7 40 21 WSW 46 59 0,0
20.09.2018 13:00:00 16,4 10,2 23,0 21,0 13,8 11,3 17 9 32 17 SW 46 56 0,0
20.09.2018 12:00:00 15,8 10,9 21,1 18,2 13,7 11,3 14 8 26 14 S 42 58 0,0
20.09.2018 11:00:00 15,1 11,3 19,0 15,5 13,7 11,3 13 7 20 11 SSW 59 60 0,0
20.09.2018 10:00:00 14,8 11,2 17,1 13,2 13,9 11,3 13 7 25 14 SW 51 60 0,0
20.09.2018 09:00:00 14,2 11,0 14,4 11,8 14,0 11,3 19 11 26 14 WSW 31 60 0,0
20.09.2018 08:00:00 14,3 9,8 12,0 11,5 14,2 11,3 23 13 26 14 SW 49 21 0,0
20.09.2018 07:00:00 14,4 9,6 11,2 11,5 14,4 11,3 20 11 21 12 SW 48 0 0,0
20.09.2018 06:00:00 14,6 9,5 11,0 11,8 14,7 11,3 18 10 21 11 SW 46 0 0,0
20.09.2018 05:00:00 14,8 9,6 11,7 12,1 14,9 11,3 17 9 23 12 WSW 48 0 0,0
20.09.2018 04:00:00 15,1 9,4 11,9 12,4 15,1 11,3 18 10 22 12 WSW 50 0 0,0
20.09.2018 03:00:00 15,2 9,4 11,7 12,8 15,4 11,3 19 10 24 13 WSW 46 0 0,0
20.09.2018 02:00:00 15,3 9,4 12,4 13,1 15,7 11,3 21 11 26 14 SSW 45 0 0,0
20.09.2018 01:00:00 15,4 9,5 12,1 13,6 15,9 11,3 20 11 26 14 S 48 0 0,0
20.09.2018 00:00:00 15,6 9,2 12,3 14,2 16,2 11,3 18 10 21 11 S 52 0 0,0
19.09.2018 23:00:00 16,0 9,1 12,2 15,0 16,4 11,3 16 9 18 10 S 48 0 0,0
19.09.2018 22:00:00 16,3 9,0 12,3 16,0 16,5 11,3 15 8 16 8 SSW 56 0 0,0
19.09.2018 21:00:00 16,1 9,3 12,4 17,5 16,5 11,3 15 8 16 9 S 53 0 0,0
19.09.2018 20:00:00 16,2 9,4 13,0 19,4 16,4 11,2 13 7 15 8 SSW 53 11 0,0
19.09.2018 19:00:00 16,9 9,3 16,4 21,7 16,1 11,3 13 7 19 10 WSW 60 53 0,0
19.09.2018 18:00:00 17,4 9,5 19,7 23,7 15,6 11,2 15 8 23 13 SW 54 60 0,0
19.09.2018 17:00:00 17,3 9,6 21,4 24,7 15,0 11,2 20 11 27 15 WSW 45 53 0,0
19.09.2018 16:00:00 17,6 10,8 19,9 25,6 14,4 11,2 10 5 29 16 W 75 56 0,0
19.09.2018 15:00:00 18,1 9,7 23,4 24,4 13,9 11,2 17 9 34 18 SSW 42 60 0,0
19.09.2018 14:00:00 17,5 9,5 23,6 22,3 13,5 11,2 16 9 28 15 SSW 49 52 0,0
19.09.2018 13:00:00 16,7 10,0 22,0 20,0 13,2 11,2 16 8 24 13 SSW 52 59 0,0
19.09.2018 12:00:00 16,0 9,5 20,5 17,5 13,1 11,2 14 7 21 12 SSW 73 60 0,0
19.09.2018 11:00:00 15,7 9,6 19,0 14,9 13,1 11,2 15 8 24 13 S 53 60 0,0
19.09.2018 10:00:00 15,1 9,2 16,8 12,7 13,2 11,2 17 9 22 12 WSW 73 60 0,0
19.09.2018 09:00:00 14,6 8,8 14,6 11,1 13,3 11,2 15 8 19 11 WSW 62 60 0,0
19.09.2018 08:00:00 14,2 8,9 11,8 10,6 13,5 11,2 18 10 24 13 WSW 49 23 0,0
19.09.2018 07:00:00 14,4 8,5 11,4 10,7 13,7 11,2 19 11 24 13 WSW 51 0 0,0
19.09.2018 06:00:00 14,4 8,8 11,3 10,8 14,0 11,2 22 12 29 16 SSW 48 0 0,0
19.09.2018 05:00:00 13,7 8,9 10,8 10,9 14,2 11,2 24 13 28 15 S 52 0 0,0
19.09.2018 04:00:00 14,0 7,7 10,7 11,2 14,5 11,2 21 12 24 13 S 62 0 0,0
19.09.2018 03:00:00 14,4 6,6 10,9 11,6 14,7 11,2 19 10 26 14 S 66 0 0,0
19.09.2018 02:00:00 15,3 8,3 10,1 12,1 15,0 11,2 12 7 17 9 SW 50 0 0,0
19.09.2018 01:00:00 15,4 5,9 10,8 12,8 15,2 11,2 15 8 18 10 SSW 74 0 0,0
19.09.2018 00:00:00 15,6 5,3 12,4 13,8 15,4 11,2 9 5 16 9 S 69 0 0,2
18.09.2018 23:00:00 15,0 5,7 13,2 14,3 15,6 11,2 14 8 34 18 S 75 0 0,0
18.09.2018 22:00:00 14,1 6,6 11,4 15,4 15,7 11,2 24 13 31 17 SE 70 0 0,0
18.09.2018 21:00:00 15,0 5,9 11,6 16,9 15,7 11,2 8 5 23 13 ESE 70 0 0,0
18.09.2018 20:00:00 15,1 11,2 14,3 18,2 15,6 11,2 12 6 13 7 NNW 36 0 0,0
18.09.2018 19:00:00 15,6 11,2 14,7 20,0 15,3 11,2 11 6 16 8 NNW 45 0 0,0
18.09.2018 18:00:00 17,0 10,0 16,9 22,1 14,9 11,2 14 7 28 15 W 46 35 0,0
18.09.2018 17:00:00 18,0 9,0 21,6 23,3 14,4 11,2 18 10 28 15 SW 59 60 0,0
18.09.2018 16:00:00 17,5 10,1 22,3 23,0 13,9 11,2 16 9 27 15 S 43 59 0,0
18.09.2018 15:00:00 17,2 10,6 22,4 21,6 13,5 11,2 12 7 26 14 S 69 41 0,0
18.09.2018 14:00:00 16,1 10,3 21,0 20,8 13,1 11,2 20 11 34 19 S 45 60 0,0
18.09.2018 13:00:00 15,7 10,0 20,3 18,8 12,8 11,2 24 13 33 18 S 58 40 0,0
18.09.2018 12:00:00 15,9 10,0 20,5 16,9 12,7 11,2 22 12 35 19 S 45 60 0,0
18.09.2018 11:00:00 14,6 9,1 17,6 14,4 12,7 11,2 28 15 38 21 S 39 54 0,0
18.09.2018 10:00:00 14,3 9,1 14,7 12,4 12,8 11,2 34 18 49 27 SSW 32 45 0,0
18.09.2018 09:00:00 14,2 9,4 14,4 11,3 12,9 11,2 39 21 56 31 SW 32 60 0,0
18.09.2018 08:00:00 14,0 9,7 12,1 10,7 13,1 11,2 35 19 42 23 SW 54 24 0,0
18.09.2018 07:00:00 14,3 8,2 11,6 10,7 13,3 11,2 34 18 40 22 WSW 61 0 0,0
18.09.2018 06:00:00 13,9 9,0 11,3 10,9 13,4 11,2 32 17 37 20 SW 36 0 0,0
18.09.2018 05:00:00 14,1 9,1 11,5 11,0 13,6 11,2 31 17 35 19 SSW 38 0 0,0
18.09.2018 04:00:00 14,5 8,5 11,6 11,1 13,9 11,2 31 17 37 20 SSW 46 0 0,0
18.09.2018 03:00:00 14,7 8,3 11,6 11,4 14,1 11,2 29 15 37 20 S 47 0 0,0
18.09.2018 02:00:00 14,7 8,0 11,7 11,6 14,4 11,2 29 15 34 19 S 45 0 0,0
18.09.2018 01:00:00 14,7 7,1 11,5 12,0 14,6 11,2 27 15 34 18 S 62 0 0,0
18.09.2018 00:00:00 14,7 6,5 12,1 12,5 14,9 11,3 20 11 27 15 S 62 0 0,0
17.09.2018 23:00:00 14,9 6,2 12,3 13,3 15,1 11,3 21 12 27 15 SSE 68 0 0,0
17.09.2018 22:00:00 15,2 4,5 12,0 14,4 15,2 11,3 16 9 18 10 S 70 0 0,0
17.09.2018 21:00:00 15,6 5,1 11,7 15,9 15,1 11,3 10 6 11 6 S 70 0 0,0
17.09.2018 20:00:00 15,6 6,9 9,4 18,2 14,9 11,3 5 3 9 5 SSW 70 18 0,0
17.09.2018 19:00:00 16,9 7,9 16,3 20,6 14,5 11,3 6 4 13 7 W 54 60 0,0
17.09.2018 18:00:00 17,9 8,0 21,2 22,2 14,0 11,3 3 2 22 12 N 68 60 0,0
17.09.2018 17:00:00 17,5 7,8 20,6 23,1 13,5 11,3 6 3 13 7 ENE 70 60 0,0
17.09.2018 16:00:00 17,4 8,5 22,2 23,1 12,9 11,3 8 5 27 15 N 31 60 0,0
17.09.2018 15:00:00 18,2 7,1 22,6 22,1 12,4 11,3 6 4 15 8 S 59 60 0,0
17.09.2018 14:00:00 17,3 5,1 22,1 20,0 12,0 11,3 8 5 26 14 SSW 36 60 0,0
17.09.2018 13:00:00 15,6 5,7 20,4 17,7 11,7 11,3 18 10 34 19 SSW 24 60 0,0
17.09.2018 12:00:00 15,0 6,5 18,8 15,6 11,6 11,3 17 9 27 14 SSW 33 60 0,0
17.09.2018 11:00:00 14,2 5,1 17,0 12,9 11,6 11,3 12 6 21 11 SSW 68 60 0,0
17.09.2018 10:00:00 13,4 4,2 15,2 10,3 11,8 11,3 14 7 25 14 SSW 63 60 0,0
17.09.2018 09:00:00 12,9 4,1 12,3 8,6 12,0 11,3 21 11 26 14 SW 26 60 0,0
17.09.2018 08:00:00 12,4 3,8 9,2 8,1 12,2 11,3 16 9 22 12 WSW 69 26 0,0
17.09.2018 07:00:00 12,3 4,0 8,7 8,4 12,4 11,3 18 10 24 13 W 70 0 0,0
17.09.2018 06:00:00 12,2 4,0 8,1 9,0 12,6 11,3 17 9 27 15 W 70 0 0,0
17.09.2018 05:00:00 12,0 4,6 8,7 9,7 12,7 11,3 24 13 32 17 WSW 70 0 0,0
17.09.2018 04:00:00 11,9 7,3 8,6 10,3 12,9 11,3 27 15 32 18 SW 35 0 0,0
17.09.2018 03:00:00 11,6 10,2 9,6 10,6 13,1 11,3 27 15 33 18 SW 10 0 0,0
17.09.2018 02:00:00 12,1 9,9 10,2 10,7 13,3 11,3 29 15 33 18 SW 16 0 0,0
17.09.2018 01:00:00 12,2 9,2 10,1 11,1 13,5 11,3 28 15 32 17 SSW 21 0 0,0
17.09.2018 00:00:00 12,4 9,4 10,0 11,5 13,7 11,3 26 14 31 17 SSW 23 0 0,0
16.09.2018 23:00:00 13,0 8,8 10,6 12,1 13,8 11,3 27 15 31 17 SSW 31 0 0,0
16.09.2018 22:00:00 13,1 9,7 10,6 12,7 13,9 11,3 22 12 24 13 SSW 27 0 0,0
16.09.2018 21:00:00 13,2 9,6 10,0 13,9 13,9 11,3 18 10 23 12 SSW 29 0 0,0
16.09.2018 20:00:00 13,1 9,4 10,0 15,7 13,7 11,3 9 5 18 10 WSW 32 18 0,0
16.09.2018 19:00:00 14,7 8,9 14,8 17,4 13,5 11,3 9 5 16 8 W 45 58 0,0
16.09.2018 18:00:00 14,7 9,7 15,8 18,2 13,2 11,3 10 5 19 10 SW 70 44 0,0
16.09.2018 17:00:00 15,3 9,0 18,1 18,6 12,8 11,3 13 7 30 16 SSW 48 52 0,0
16.09.2018 16:00:00 15,4 7,2 18,6 19,1 12,3 11,3 23 12 35 19 SSW 24 59 0,0
16.09.2018 15:00:00 15,2 8,6 18,4 19,3 11,9 11,3 26 14 40 22 SSW 30 60 0,0
16.09.2018 14:00:00 15,1 9,7 19,9 18,7 11,4 11,3 15 8 25 14 SSW 41 60 0,0
16.09.2018 13:00:00 14,7 8,4 19,2 16,8 11,1 11,3 12 6 23 13 S 58 60 0,0
16.09.2018 12:00:00 14,0 8,7 17,8 14,9 10,9 11,3 17 9 26 14 S 24 59 0,0
16.09.2018 11:00:00 12,6 8,9 15,4 12,6 10,9 11,3 22 12 28 15 S 22 60 0,0
16.09.2018 10:00:00 11,8 8,4 11,5 9,9 11,0 11,3 19 10 24 13 SSE 23 60 0,0
16.09.2018 09:00:00 10,0 8,3 10,3 7,8 11,2 11,3 14 8 19 10 ESE 7 60 0,0
16.09.2018 08:00:00 9,5 8,1 7,4 6,8 11,4 11,3 16 9 22 12 ESE 4,0 27 0,0
16.09.2018 07:00:00 10,6 7,6 6,5 6,8 11,6 11,3 8 5 24 13 SSE 11 0 0,0
16.09.2018 06:00:00 8,9 7,8 6,2 6,9 11,9 11,3 18 10 25 14 ESE 4,1 0 0,0
16.09.2018 05:00:00 9,1 7,0 6,2 7,0 12,1 11,3 20 11 33 18 SE 8 0 0,0
16.09.2018 04:00:00 8,6 6,9 5,7 7,3 12,4 11,3 28 15 34 19 ESE 8 0 0,0
16.09.2018 03:00:00 8,2 4,8 5,5 7,6 12,7 11,3 29 16 37 20 ESE 16 0 0,0
16.09.2018 02:00:00 8,9 5,1 5,7 8,0 13,0 11,3 32 17 42 23 ESE 25 0 0,0
16.09.2018 01:00:00 9,2 4,5 6,4 8,4 13,3 11,3 34 19 41 22 ESE 39 0 0,0
16.09.2018 00:00:00 8,9 4,3 5,9 9,1 13,6 11,3 31 17 42 23 ESE 37 0 0,0
15.09.2018 23:00:00 8,9 4,3 6,3 9,8 13,9 11,3 29 16 35 19 E 50 0 0,0
15.09.2018 22:00:00 9,5 4,7 6,8 10,8 14,1 11,3 27 14 32 17 E 39 0 0,0
15.09.2018 21:00:00 9,2 5,6 6,6 12,1 14,2 11,3 20 11 23 13 E 36 0 0,0
15.09.2018 20:00:00 8,6 5,0 6,3 14,1 14,1 11,3 10 5 15 8 NE 30 22 0,0
15.09.2018 19:00:00 9,3 5,2 10,6 16,4 13,9 11,3 12 7 16 8 N 31 60 0,0
15.09.2018 18:00:00 10,0 5,5 13,0 18,0 13,6 11,3 11 6 16 9 N 18 60 0,0
15.09.2018 17:00:00 10,4 6,0 14,7 19,1 13,3 11,3 12 7 18 10 N 23 60 0,0
15.09.2018 16:00:00 10,7 6,0 16,3 19,5 12,8 11,3 9 5 17 9 N 70 60 0,0
15.09.2018 15:00:00 10,4 6,0 14,5 19,1 12,4 11,3 11 6 22 12 N 56 60 0,0
15.09.2018 14:00:00 10,6 6,1 14,6 18,6 12,1 11,3 12 7 19 10 N 40 60 0,0
15.09.2018 13:00:00 11,9 5,2 16,8 16,9 11,8 11,3 9 5 27 14 S 43 60 0,0
15.09.2018 12:00:00 10,1 5,2 14,3 14,5 11,8 11,3 7 4 18 10 N 70 60 0,0
15.09.2018 11:00:00 8,7 4,5 12,7 11,7 11,8 11,3 8 4 16 9 NNE 39 60 0,0
15.09.2018 10:00:00 7,4 4,2 7,8 9,6 12,0 11,3 10 6 16 9 NNE 22 60 0,0

tt = Température de l'air
td = dewpoint
tt 5cm = Température de l'air 5cm
tt -5cm = Température de l'air -5cm
tt -20cm = Température de l'air -20cm
tt -100cm = Température de l'air -100cm
ff = Vitesse du vent
fx = gusts
dd = Direction du vent
vv = visibility
sd = Ensoleillement
rr = Quantités de précipitations

stations d'obs. à proximité